createdAt,value
2018-02-27T00:01:09.689Z,-6.73
2018-02-27T00:03:37.275Z,-6.75
2018-02-27T00:06:04.837Z,-6.71
2018-02-27T00:08:32.416Z,-6.71
2018-02-27T00:10:59.978Z,-6.67
2018-02-27T00:13:27.619Z,-6.65
2018-02-27T00:15:55.176Z,-6.64
2018-02-27T00:18:22.746Z,-6.61
2018-02-27T00:20:50.383Z,-6.61
2018-02-27T00:23:17.990Z,-6.64
2018-02-27T00:25:45.566Z,-6.68
2018-02-27T00:28:13.142Z,-6.74
2018-02-27T00:30:40.776Z,-6.61
2018-02-27T00:33:08.338Z,-6.68
2018-02-27T00:35:35.958Z,-6.73
2018-02-27T00:38:03.518Z,-6.77
2018-02-27T00:40:31.082Z,-6.70
2018-02-27T00:42:58.651Z,-6.65
2018-02-27T00:45:26.212Z,-6.67
2018-02-27T00:47:53.843Z,-6.76
2018-02-27T00:50:21.388Z,-6.77
2018-02-27T00:52:49.070Z,-6.81
2018-02-27T00:55:16.691Z,-6.84
2018-02-27T00:57:44.260Z,-6.93
2018-02-27T01:00:11.834Z,-6.93
2018-02-27T01:02:39.451Z,-6.97
2018-02-27T01:05:07.085Z,-6.93
2018-02-27T01:07:34.647Z,-6.94
2018-02-27T01:10:02.224Z,-6.95
2018-02-27T01:12:29.891Z,-6.91
2018-02-27T01:14:57.559Z,-6.96
2018-02-27T01:17:25.123Z,-6.99
2018-02-27T01:19:52.695Z,-6.99
2018-02-27T01:22:20.342Z,-6.99
2018-02-27T01:24:47.972Z,-7.06
2018-02-27T01:27:15.611Z,-7.17
2018-02-27T01:29:43.156Z,-7.13
2018-02-27T01:32:10.762Z,-7.14
2018-02-27T01:34:39.106Z,-7.07
2018-02-27T01:37:06.663Z,-7.05
2018-02-27T01:39:34.238Z,-7.05
2018-02-27T01:42:01.797Z,-7.10
2018-02-27T01:44:29.367Z,-7.05
2018-02-27T01:46:56.948Z,-7.12
2018-02-27T01:49:24.642Z,-7.03
2018-02-27T01:51:52.317Z,-7.00
2018-02-27T01:54:19.874Z,-7.01
2018-02-27T01:56:47.456Z,-6.98
2018-02-27T01:59:15.087Z,-6.95
2018-02-27T02:01:42.731Z,-6.91
2018-02-27T02:04:10.365Z,-6.96
2018-02-27T02:06:37.953Z,-6.96
2018-02-27T02:09:05.587Z,-7.02
2018-02-27T02:11:33.198Z,-6.95
2018-02-27T02:14:00.763Z,-6.96
2018-02-27T02:16:28.323Z,-7.01
2018-02-27T02:18:55.893Z,-7.06
2018-02-27T02:21:23.472Z,-7.01
2018-02-27T02:23:51.161Z,-7.07
2018-02-27T02:26:18.823Z,-7.07
2018-02-27T02:28:46.457Z,-7.04
2018-02-27T02:31:14.084Z,-7.02
2018-02-27T02:33:41.643Z,-7.02
2018-02-27T02:36:09.224Z,-7.03
2018-02-27T02:38:36.846Z,-6.93
2018-02-27T02:41:04.433Z,-6.96
2018-02-27T02:43:32.083Z,-6.94
2018-02-27T02:45:59.706Z,-6.98
2018-02-27T02:48:27.272Z,-6.98
2018-02-27T02:50:54.898Z,-7.05
2018-02-27T02:53:22.470Z,-7.02
2018-02-27T02:55:50.027Z,-7.02
2018-02-27T02:58:17.659Z,-7.04
2018-02-27T03:00:45.223Z,-7.13
2018-02-27T03:03:12.800Z,-7.09
2018-02-27T03:05:40.424Z,-7.01
2018-02-27T03:08:08.039Z,-7.09
2018-02-27T03:10:35.608Z,-7.04
2018-02-27T03:13:03.179Z,-7.03
2018-02-27T03:15:30.746Z,-7.11
2018-02-27T03:17:58.379Z,-7.14
2018-02-27T03:20:25.959Z,-7.10
2018-02-27T03:22:53.525Z,-7.12
2018-02-27T03:25:21.188Z,-7.07
2018-02-27T03:27:48.760Z,-7.16
2018-02-27T03:30:16.327Z,-7.19
2018-02-27T03:32:43.959Z,-7.24
2018-02-27T03:35:11.522Z,-7.24
2018-02-27T03:37:39.170Z,-7.23
2018-02-27T03:40:06.742Z,-7.35
2018-02-27T03:42:34.438Z,-7.43
2018-02-27T03:45:02.065Z,-7.43
2018-02-27T03:47:29.634Z,-7.50
2018-02-27T03:49:57.188Z,-7.53
2018-02-27T03:52:24.806Z,-7.74
2018-02-27T03:54:52.453Z,-7.69
2018-02-27T03:57:20.081Z,-7.71
2018-02-27T03:59:47.668Z,-7.75
2018-02-27T04:02:15.294Z,-7.82
2018-02-27T04:04:42.979Z,-7.83
2018-02-27T04:07:10.543Z,-7.81
2018-02-27T04:09:38.102Z,-7.79
2018-02-27T04:12:05.738Z,-7.70
2018-02-27T04:14:33.369Z,-7.61
2018-02-27T04:17:00.935Z,-7.59
2018-02-27T04:19:28.499Z,-7.56
2018-02-27T04:21:56.126Z,-7.54
2018-02-27T04:24:23.691Z,-7.53
2018-02-27T04:26:51.260Z,-7.56
2018-02-27T04:29:18.842Z,-7.52
2018-02-27T04:31:46.400Z,-7.45
2018-02-27T04:34:14.031Z,-7.45
2018-02-27T04:36:41.602Z,-7.41
2018-02-27T04:39:09.298Z,-7.41
2018-02-27T04:41:36.858Z,-7.43
2018-02-27T04:44:04.425Z,-7.44
2018-02-27T04:46:32.003Z,-7.45
2018-02-27T04:48:59.570Z,-7.46
2018-02-27T04:51:27.200Z,-7.54
2018-02-27T04:53:54.770Z,-7.48
2018-02-27T04:56:22.358Z,-7.44
2018-02-27T04:58:49.925Z,-7.42
2018-02-27T05:01:17.571Z,-7.38
2018-02-27T05:03:45.212Z,-7.30
2018-02-27T05:06:12.787Z,-7.29
2018-02-27T05:08:40.378Z,-7.29
2018-02-27T05:11:08.019Z,-7.28
2018-02-27T05:13:35.662Z,-7.27
2018-02-27T05:16:03.255Z,-7.32
2018-02-27T05:18:30.893Z,-7.35
2018-02-27T05:20:58.519Z,-7.34
2018-02-27T05:23:26.144Z,-7.27
2018-02-27T05:25:53.727Z,-7.23
2018-02-27T05:28:21.291Z,-7.16
2018-02-27T05:30:48.862Z,-7.07
2018-02-27T05:33:16.433Z,-7.05
2018-02-27T05:35:44.122Z,-7.12
2018-02-27T05:38:11.683Z,-6.95
2018-02-27T05:40:39.247Z,-6.90
2018-02-27T05:43:06.830Z,-6.81
2018-02-27T05:45:34.464Z,-6.73
2018-02-27T05:48:02.104Z,-6.68
2018-02-27T05:50:29.682Z,-6.58
2018-02-27T05:52:57.285Z,-6.53
2018-02-27T05:55:24.917Z,-6.44
2018-02-27T05:57:52.547Z,-6.36
2018-02-27T06:00:20.138Z,-6.35
2018-02-27T06:02:47.774Z,-6.48
2018-02-27T06:05:15.458Z,-6.43
2018-02-27T06:07:43.026Z,-6.39
2018-02-27T06:10:10.601Z,-6.47
2018-02-27T06:12:38.209Z,-6.45
2018-02-27T06:15:05.844Z,-6.27
2018-02-27T06:17:33.484Z,-6.22
2018-02-27T06:20:01.031Z,-6.20
2018-02-27T06:22:28.608Z,-6.27
2018-02-27T06:24:56.254Z,-6.20
2018-02-27T06:27:23.903Z,-6.06
2018-02-27T06:29:51.466Z,-6.01
2018-02-27T06:32:19.100Z,-6.00
2018-02-27T06:34:46.690Z,-5.92
2018-02-27T06:37:14.282Z,-5.79
2018-02-27T06:39:41.868Z,-5.73
2018-02-27T06:42:09.443Z,-5.79
2018-02-27T06:44:37.131Z,-5.81
2018-02-27T06:47:04.797Z,-5.83
2018-02-27T06:49:32.422Z,-5.86
2018-02-27T06:51:59.989Z,-6.00
2018-02-27T06:54:27.620Z,-6.15
2018-02-27T06:56:55.179Z,-6.15
2018-02-27T06:59:22.742Z,-6.01
2018-02-27T07:01:50.419Z,-5.65
2018-02-27T07:04:18.060Z,-5.52
2018-02-27T07:06:45.622Z,-5.55
2018-02-27T07:09:13.203Z,-5.39
2018-02-27T07:11:40.826Z,-5.28
2018-02-27T07:14:08.406Z,-5.27
2018-02-27T07:16:35.966Z,-5.28
2018-02-27T07:19:03.538Z,-5.12
2018-02-27T07:21:31.103Z,-5.23
2018-02-27T07:23:58.718Z,-5.14
2018-02-27T07:26:26.282Z,-5.13
2018-02-27T07:28:53.843Z,-4.96
2018-02-27T07:31:21.462Z,-4.97
2018-02-27T07:33:49.032Z,-5.04
2018-02-27T07:36:16.619Z,-4.97
2018-02-27T07:38:44.223Z,-4.75
2018-02-27T07:41:11.855Z,-4.71
2018-02-27T07:43:39.422Z,-4.61
2018-02-27T07:46:06.986Z,-4.66
2018-02-27T07:48:34.563Z,-4.70
2018-02-27T07:51:02.195Z,-4.71
2018-02-27T07:53:29.782Z,-4.48
2018-02-27T07:55:57.368Z,-4.22
2018-02-27T07:58:25.050Z,-3.97
2018-02-27T08:00:52.614Z,-3.90
2018-02-27T08:03:20.181Z,-3.66
2018-02-27T08:05:47.766Z,-3.69
2018-02-27T08:08:15.339Z,-3.72
2018-02-27T08:10:42.919Z,-3.91
2018-02-27T08:13:10.559Z,-3.67
2018-02-27T08:15:38.138Z,-3.65
2018-02-27T08:18:05.704Z,-3.51
2018-02-27T08:20:33.344Z,-3.09
2018-02-27T08:23:00.915Z,-3.23
2018-02-27T08:25:28.492Z,-2.94
2018-02-27T08:27:56.071Z,-2.88
2018-02-27T08:30:23.711Z,-2.96
2018-02-27T08:32:51.313Z,-2.68
2018-02-27T08:35:18.891Z,-2.57
2018-02-27T08:37:46.504Z,-1.94
2018-02-27T08:40:14.071Z,-1.67
2018-02-27T08:42:41.640Z,-1.83
2018-02-27T08:45:09.289Z,-1.93
2018-02-27T08:47:36.856Z,-1.83
2018-02-27T08:50:04.495Z,-2.06
2018-02-27T08:52:32.056Z,-2.57
2018-02-27T08:54:59.691Z,-2.34
2018-02-27T08:57:27.282Z,-2.04
2018-02-27T08:59:54.919Z,-1.89
2018-02-27T09:02:22.513Z,-1.52
2018-02-27T09:04:50.074Z,-1.38
2018-02-27T09:07:17.707Z,-0.99
2018-02-27T09:09:45.276Z,-0.76
2018-02-27T09:12:12.855Z,-0.50
2018-02-27T09:14:40.513Z,-0.20
2018-02-27T09:17:08.194Z,-0.31
2018-02-27T09:19:35.764Z,-0.30
2018-02-27T09:22:03.388Z,-1.04
2018-02-27T09:24:31.025Z,-0.98
2018-02-27T09:26:58.647Z,-1.26
2018-02-27T09:29:26.214Z,-1.22
2018-02-27T09:31:53.839Z,-1.54
2018-02-27T09:34:21.468Z,-1.16
2018-02-27T09:36:49.026Z,-0.90
2018-02-27T09:39:16.587Z,-1.06
2018-02-27T09:41:44.158Z,-1.25
2018-02-27T09:44:11.723Z,-0.99
2018-02-27T09:46:39.310Z,-1.07
2018-02-27T09:49:06.945Z,-1.29
2018-02-27T09:51:34.522Z,-1.08
2018-02-27T09:54:02.172Z,-0.77
2018-02-27T09:56:29.793Z,-0.51
2018-02-27T09:58:57.366Z,-0.25
2018-02-27T10:01:24.937Z,0.33
2018-02-27T10:03:52.509Z,0.38
2018-02-27T10:06:20.071Z,-0.02
2018-02-27T10:08:47.651Z,0.00
2018-02-27T10:11:15.280Z,-0.42
2018-02-27T10:13:42.852Z,-0.66
2018-02-27T10:16:10.488Z,-0.12
2018-02-27T10:18:38.055Z,-0.21
2018-02-27T10:21:05.704Z,-0.10
2018-02-27T10:23:33.266Z,0.31
2018-02-27T10:26:00.875Z,0.37
2018-02-27T10:28:28.514Z,0.50
2018-02-27T10:30:56.118Z,-0.09
2018-02-27T10:33:23.832Z,0.13
2018-02-27T10:35:51.532Z,0.03
2018-02-27T10:38:19.228Z,-0.39
2018-02-27T10:40:46.836Z,-0.83
2018-02-27T10:43:14.468Z,-1.06
2018-02-27T10:45:42.091Z,-0.46
2018-02-27T10:48:09.702Z,0.21
2018-02-27T10:50:37.263Z,0.44
2018-02-27T10:53:04.827Z,0.53
2018-02-27T10:55:32.398Z,0.30
2018-02-27T10:57:59.944Z,0.40
2018-02-27T11:00:33.080Z,0.63
2018-02-27T11:03:00.643Z,1.18
2018-02-27T11:05:28.222Z,1.30
2018-02-27T11:07:55.801Z,1.32
2018-02-27T11:10:23.434Z,1.10
2018-02-27T11:12:51.013Z,1.45
2018-02-27T11:15:18.649Z,0.34
2018-02-27T11:17:46.308Z,-0.35
2018-02-27T11:20:13.851Z,0.00
2018-02-27T11:22:41.422Z,-0.12
2018-02-27T11:25:08.986Z,-0.43
2018-02-27T11:27:36.668Z,-0.16
2018-02-27T11:30:04.272Z,0.10
2018-02-27T11:32:31.883Z,0.33
2018-02-27T11:34:59.511Z,0.70
2018-02-27T11:37:27.076Z,1.20
2018-02-27T11:39:54.664Z,1.36
2018-02-27T11:42:22.226Z,1.62
2018-02-27T11:44:49.935Z,1.87
2018-02-27T11:47:17.555Z,2.33
2018-02-27T11:49:45.218Z,2.40
2018-02-27T11:52:12.792Z,2.43
2018-02-27T11:54:40.350Z,2.90
2018-02-27T11:57:07.918Z,2.78
2018-02-27T11:59:35.479Z,1.39
2018-02-27T12:02:03.108Z,1.48
2018-02-27T12:04:30.666Z,1.80
2018-02-27T12:06:58.343Z,1.70
2018-02-27T12:09:25.917Z,1.52
2018-02-27T12:11:53.551Z,1.16
2018-02-27T12:14:21.127Z,1.56
2018-02-27T12:16:48.699Z,1.21
2018-02-27T12:19:16.274Z,0.75
2018-02-27T12:21:43.842Z,0.35
2018-02-27T12:24:11.474Z,0.90
2018-02-27T12:26:39.032Z,0.65
2018-02-27T12:29:06.604Z,0.63
2018-02-27T12:31:34.238Z,0.23
2018-02-27T12:34:12.845Z,0.62
2018-02-27T12:36:40.448Z,0.61
2018-02-27T12:39:08.075Z,0.41
2018-02-27T12:41:35.656Z,0.32
2018-02-27T12:44:03.221Z,0.58
2018-02-27T12:46:30.839Z,0.52
2018-02-27T12:48:58.469Z,0.19
2018-02-27T12:51:26.035Z,0.57
2018-02-27T12:53:53.644Z,0.73
2018-02-27T12:56:21.209Z,0.82
2018-02-27T12:58:48.787Z,0.97
2018-02-27T13:01:16.447Z,1.26
2018-02-27T13:03:44.141Z,1.13
2018-02-27T13:06:12.595Z,0.75
2018-02-27T13:08:40.176Z,0.94
2018-02-27T13:11:07.742Z,0.87
2018-02-27T13:13:35.314Z,1.02
2018-02-27T13:16:02.902Z,1.18
2018-02-27T13:18:30.592Z,1.37
2018-02-27T13:20:58.230Z,1.17
2018-02-27T13:23:25.806Z,1.17
2018-02-27T13:25:53.503Z,1.03
2018-02-27T13:28:21.132Z,1.24
2018-02-27T13:30:48.932Z,0.78
2018-02-27T13:33:16.502Z,0.90
2018-02-27T13:35:44.126Z,0.89
2018-02-27T13:38:11.767Z,1.19
2018-02-27T13:40:39.338Z,1.23
2018-02-27T13:43:06.969Z,0.92
2018-02-27T13:45:34.583Z,0.60
2018-02-27T13:48:02.207Z,0.26
2018-02-27T13:50:29.791Z,-0.32
2018-02-27T13:52:57.359Z,-0.76
2018-02-27T13:55:25.772Z,-0.87
2018-02-27T13:57:53.353Z,-1.05
2018-02-27T14:00:20.979Z,-0.92
2018-02-27T14:02:48.603Z,-0.99
2018-02-27T14:05:16.164Z,-0.85
2018-02-27T14:07:43.746Z,-1.02
2018-02-27T14:10:11.320Z,-1.36
2018-02-27T14:12:38.921Z,-1.58
2018-02-27T14:15:06.489Z,-1.83
2018-02-27T14:17:34.069Z,-1.84
2018-02-27T14:20:01.639Z,-1.87
2018-02-27T14:22:29.211Z,-1.97
2018-02-27T14:24:56.802Z,-2.01
2018-02-27T14:27:24.371Z,-1.99
2018-02-27T14:29:51.936Z,-1.90
2018-02-27T14:32:19.515Z,-1.98
2018-02-27T14:34:47.112Z,-2.04
2018-02-27T14:37:14.690Z,-2.10
2018-02-27T14:39:42.312Z,-2.13
2018-02-27T14:42:09.880Z,-2.09
2018-02-27T14:44:37.438Z,-2.16
2018-02-27T14:47:05.025Z,-2.14
2018-02-27T14:49:32.599Z,-2.17
2018-02-27T14:52:00.194Z,-2.27
2018-02-27T14:54:27.749Z,-2.63
2018-02-27T14:56:55.361Z,-2.63
2018-02-27T14:59:22.927Z,-2.86
2018-02-27T15:01:50.500Z,-2.75
2018-02-27T15:04:18.087Z,-2.88
2018-02-27T15:06:45.695Z,-2.89
2018-02-27T15:09:13.270Z,-2.77
2018-02-27T15:11:40.833Z,-2.76
2018-02-27T15:14:08.417Z,-2.87
2018-02-27T15:16:36.021Z,-3.16
2018-02-27T15:19:03.574Z,-3.25
2018-02-27T15:21:31.165Z,-3.27
2018-02-27T15:23:58.748Z,-3.16
2018-02-27T15:26:26.338Z,-3.24
2018-02-27T15:28:53.896Z,-3.55
2018-02-27T15:31:21.490Z,-3.77
2018-02-27T15:33:49.113Z,-3.93
2018-02-27T15:36:16.725Z,-4.05
2018-02-27T15:38:44.302Z,-4.04
2018-02-27T15:41:11.880Z,-4.12
2018-02-27T15:43:39.469Z,-4.13
2018-02-27T15:46:07.034Z,-4.17
2018-02-27T15:48:34.639Z,-4.25
2018-02-27T15:51:02.250Z,-4.27
2018-02-27T15:53:29.863Z,-4.29
2018-02-27T15:55:57.475Z,-4.24
2018-02-27T15:58:25.066Z,-4.28
2018-02-27T16:00:52.639Z,-4.25
2018-02-27T16:03:20.199Z,-4.26
2018-02-27T16:05:47.777Z,-4.28
2018-02-27T16:08:15.336Z,-4.34
2018-02-27T16:10:42.982Z,-4.32
2018-02-27T16:13:10.565Z,-4.36
2018-02-27T16:15:38.140Z,-4.38
2018-02-27T16:18:05.719Z,-4.37
2018-02-27T16:20:33.315Z,-4.48
2018-02-27T16:23:00.955Z,-4.51
2018-02-27T16:25:28.534Z,-4.58
2018-02-27T16:27:56.121Z,-4.69
2018-02-27T16:30:23.679Z,-4.67
2018-02-27T16:32:51.329Z,-4.70
2018-02-27T16:35:18.894Z,-4.77
2018-02-27T16:37:46.474Z,-5.00
2018-02-27T16:40:14.055Z,-5.18
2018-02-27T16:42:41.622Z,-5.38
2018-02-27T16:45:09.216Z,-5.51
2018-02-27T16:47:36.809Z,-5.63
2018-02-27T16:50:04.419Z,-5.69
2018-02-27T16:52:31.992Z,-5.66
2018-02-27T16:54:59.569Z,-5.67
2018-02-27T16:57:42.860Z,-5.67
2018-02-27T17:00:10.443Z,-5.68
2018-02-27T17:02:38.019Z,-5.56
2018-02-27T17:05:05.591Z,-5.49
2018-02-27T17:07:33.227Z,-5.37
2018-02-27T17:10:00.847Z,-5.28
2018-02-27T17:12:28.424Z,-5.28
2018-02-27T17:14:56.007Z,-5.31
2018-02-27T17:17:23.574Z,-5.34
2018-02-27T17:19:51.191Z,-5.36
2018-02-27T17:22:18.785Z,-5.35
2018-02-27T17:24:46.403Z,-5.30
2018-02-27T17:27:14.026Z,-5.41
2018-02-27T17:29:41.608Z,-5.42
2018-02-27T17:32:09.188Z,-5.40
2018-02-27T17:34:36.755Z,-5.41
2018-02-27T17:37:04.334Z,-5.52
2018-02-27T17:39:31.922Z,-5.63
2018-02-27T17:41:59.503Z,-5.70
2018-02-27T17:44:27.067Z,-5.67
2018-02-27T17:46:54.748Z,-5.69
2018-02-27T17:49:22.338Z,-5.72
2018-02-27T17:51:49.924Z,-5.82
2018-02-27T17:54:17.496Z,-5.75
2018-02-27T17:56:45.064Z,-5.81
2018-02-27T17:59:12.640Z,-5.71
2018-02-27T18:01:40.207Z,-5.74
2018-02-27T18:04:07.828Z,-5.83
2018-02-27T18:06:35.402Z,-5.91
2018-02-27T18:09:03.043Z,-5.86
2018-02-27T18:11:30.619Z,-5.94
2018-02-27T18:13:58.184Z,-5.96
2018-02-27T18:16:25.766Z,-5.98
2018-02-27T18:18:53.323Z,-5.99
2018-02-27T18:21:20.940Z,-5.99
2018-02-27T18:23:48.493Z,-5.94
2018-02-27T18:26:16.148Z,-6.01
2018-02-27T18:28:43.702Z,-6.02
2018-02-27T18:31:11.271Z,-6.01
2018-02-27T18:33:38.849Z,-5.98
2018-02-27T18:36:07.338Z,-5.97
2018-02-27T18:38:34.923Z,-5.97
2018-02-27T18:41:02.512Z,-5.98
2018-02-27T18:43:30.207Z,-5.96
2018-02-27T18:45:57.751Z,-5.93
2018-02-27T18:48:25.315Z,-6.06
2018-02-27T18:50:52.883Z,-6.10
2018-02-27T18:53:20.454Z,-6.00
2018-02-27T18:55:48.038Z,-6.08
2018-02-27T18:58:15.604Z,-5.99
2018-02-27T19:00:43.221Z,-6.00
2018-02-27T19:03:10.806Z,-6.15
2018-02-27T19:05:38.372Z,-6.15
2018-02-27T19:08:05.970Z,-6.12
2018-02-27T19:10:33.539Z,-6.11
2018-02-27T19:13:01.115Z,-6.01
2018-02-27T19:15:28.682Z,-5.90
2018-02-27T19:17:56.277Z,-5.94
2018-02-27T19:20:23.837Z,-5.88
2018-02-27T19:22:51.445Z,-5.93
2018-02-27T19:25:19.015Z,-6.05
2018-02-27T19:27:46.583Z,-6.01
2018-02-27T19:30:14.176Z,-6.06
2018-02-27T19:32:41.749Z,-6.06
2018-02-27T19:35:09.327Z,-5.91
2018-02-27T19:37:36.921Z,-5.88
2018-02-27T19:40:04.534Z,-5.82
2018-02-27T19:42:32.104Z,-5.81
2018-02-27T19:44:59.680Z,-5.73
2018-02-27T19:47:27.268Z,-5.84
2018-02-27T19:49:54.835Z,-5.79
2018-02-27T19:52:22.407Z,-5.78
2018-02-27T19:54:49.970Z,-5.79
2018-02-27T19:57:17.589Z,-5.92
2018-02-27T19:59:45.158Z,-5.95
2018-02-27T20:02:12.719Z,-5.93
2018-02-27T20:04:41.131Z,-5.95
2018-02-27T20:07:08.695Z,-6.02
2018-02-27T20:09:36.267Z,-5.88
2018-02-27T20:12:03.831Z,-5.95
2018-02-27T20:14:31.398Z,-5.90
2018-02-27T20:16:59.023Z,-5.86
2018-02-27T20:19:26.598Z,-5.82
2018-02-27T20:21:54.162Z,-5.90
2018-02-27T20:24:21.779Z,-5.83
2018-02-27T20:26:49.350Z,-5.82
2018-02-27T20:29:21.414Z,-5.87
2018-02-27T20:31:49.027Z,-5.78
2018-02-27T20:34:16.659Z,-5.82
2018-02-27T20:36:44.385Z,-5.79
2018-02-27T20:39:17.522Z,-5.86
2018-02-27T20:41:45.117Z,-5.83
2018-02-27T20:44:12.694Z,-5.86
2018-02-27T20:46:40.258Z,-5.84
2018-02-27T20:49:07.850Z,-5.86
2018-02-27T20:51:35.421Z,-5.70
2018-02-27T20:54:02.996Z,-5.68
2018-02-27T20:56:30.562Z,-5.71
2018-02-27T20:58:58.132Z,-5.70
2018-02-27T21:01:25.703Z,-5.61
2018-02-27T21:03:53.271Z,-5.65
2018-02-27T21:06:20.851Z,-5.75
2018-02-27T21:08:48.414Z,-5.80
2018-02-27T21:11:15.988Z,-5.83
2018-02-27T21:13:43.558Z,-5.79
2018-02-27T21:16:11.165Z,-5.73
2018-02-27T21:18:38.746Z,-5.71
2018-02-27T21:21:06.312Z,-5.72
2018-02-27T21:23:33.871Z,-5.66
2018-02-27T21:26:01.435Z,-5.63
2018-02-27T21:28:29.002Z,-5.71
2018-02-27T21:30:56.569Z,-5.70
2018-02-27T21:33:24.165Z,-5.72
2018-02-27T21:35:51.722Z,-5.75
2018-02-27T21:38:19.290Z,-5.75
2018-02-27T21:40:46.871Z,-5.75
2018-02-27T21:43:14.471Z,-5.81
2018-02-27T21:45:42.061Z,-5.91
2018-02-27T21:48:09.655Z,-5.94
2018-02-27T21:50:37.239Z,-5.91
2018-02-27T21:53:04.809Z,-5.93
2018-02-27T21:55:32.428Z,-6.04
2018-02-27T21:57:59.999Z,-6.05
2018-02-27T22:00:27.572Z,-6.09
2018-02-27T22:02:55.158Z,-6.12
2018-02-27T22:05:22.727Z,-5.98
2018-02-27T22:07:50.302Z,-6.01
2018-02-27T22:10:17.870Z,-6.05
2018-02-27T22:12:45.464Z,-5.98
2018-02-27T22:15:13.027Z,-5.99
2018-02-27T22:17:40.590Z,-5.99
2018-02-27T22:20:08.174Z,-6.06
2018-02-27T22:22:35.766Z,-6.25
2018-02-27T22:25:03.369Z,-6.17
2018-02-27T22:27:30.954Z,-6.18
2018-02-27T22:29:58.558Z,-6.14
2018-02-27T22:32:26.145Z,-6.10
2018-02-27T22:34:53.711Z,-6.19
2018-02-27T22:37:21.299Z,-6.21
2018-02-27T22:39:48.866Z,-6.11
2018-02-27T22:42:16.439Z,-6.12
2018-02-27T22:44:44.002Z,-6.10
2018-02-27T22:47:11.580Z,-6.17
2018-02-27T22:49:39.135Z,-6.25
2018-02-27T22:52:06.738Z,-6.30
2018-02-27T22:54:34.319Z,-6.31
2018-02-27T22:57:01.903Z,-6.26
2018-02-27T22:59:29.474Z,-6.12
2018-02-27T23:01:57.041Z,-6.14
2018-02-27T23:04:24.631Z,-6.04
2018-02-27T23:06:52.210Z,-5.93
2018-02-27T23:09:19.815Z,-5.91
2018-02-27T23:11:47.384Z,-5.89
2018-02-27T23:14:14.951Z,-5.84
2018-02-27T23:16:42.532Z,-5.80
2018-02-27T23:19:10.100Z,-5.71
2018-02-27T23:21:37.715Z,-5.69
2018-02-27T23:24:08.942Z,-5.58
2018-02-27T23:26:40.800Z,-5.54
2018-02-27T23:29:09.166Z,-5.49
2018-02-27T23:31:37.968Z,-5.52
2018-02-27T23:34:19.114Z,-5.53
2018-02-27T23:36:46.685Z,-5.42
2018-02-27T23:39:14.260Z,-5.48
2018-02-27T23:41:41.819Z,-5.45
2018-02-27T23:44:09.395Z,-5.51
2018-02-27T23:46:36.954Z,-5.63
2018-02-27T23:49:04.578Z,-5.59
2018-02-27T23:51:32.155Z,-5.54
2018-02-27T23:53:59.734Z,-5.48
2018-02-27T23:56:27.311Z,-5.56
2018-02-27T23:58:54.887Z,-5.55
